createdAt,value
2023-03-08T00:01:05.714Z,36
2023-03-08T00:16:05.267Z,40
2023-03-08T00:31:05.648Z,37
2023-03-08T00:46:05.817Z,38
2023-03-08T01:01:05.117Z,33
2023-03-08T01:16:05.729Z,33
2023-03-08T01:31:05.154Z,31
2023-03-08T01:46:05.780Z,30
2023-03-08T02:01:05.925Z,30
2023-03-08T02:16:05.213Z,29
2023-03-08T02:31:05.322Z,28
2023-03-08T02:46:05.911Z,30
2023-03-08T03:01:05.742Z,31
2023-03-08T03:16:05.581Z,30
2023-03-08T03:31:05.433Z,31
2023-03-08T03:46:04.780Z,29
2023-03-08T04:01:04.675Z,31
2023-03-08T04:16:05.266Z,26
2023-03-08T04:31:05.724Z,27
2023-03-08T04:46:04.933Z,24
2023-03-08T05:01:05.643Z,27
2023-03-08T05:16:05.469Z,29
2023-03-08T05:31:05.631Z,32
2023-03-08T05:46:05.073Z,29
2023-03-08T06:01:05.049Z,28
2023-03-08T06:16:05.485Z,30
2023-03-08T06:31:05.023Z,36
2023-03-08T06:46:05.103Z,29
2023-03-08T07:01:05.480Z,27
2023-03-08T07:16:05.888Z,29
2023-03-08T07:31:05.735Z,31
2023-03-08T07:46:05.747Z,40
2023-03-08T08:01:04.935Z,36
2023-03-08T08:16:04.731Z,27
2023-03-08T08:31:05.118Z,31
2023-03-08T08:46:05.917Z,25
2023-03-08T09:01:05.485Z,24
2023-03-08T09:16:05.004Z,39
2023-03-08T09:31:05.737Z,21
2023-03-08T09:46:05.017Z,22
2023-03-08T10:01:05.917Z,20
2023-03-08T10:16:05.006Z,20
2023-03-08T10:31:04.945Z,38
2023-03-08T10:46:04.983Z,19
2023-03-08T11:01:05.548Z,17
2023-03-08T11:16:04.843Z,20
2023-03-08T11:31:05.472Z,25
2023-03-08T11:46:05.764Z,24
2023-03-08T12:01:04.897Z,22
2023-03-08T12:16:05.793Z,28
2023-03-08T12:31:18.218Z,21
2023-03-08T12:46:06.014Z,18
2023-03-08T13:01:05.806Z,17
2023-03-08T13:16:05.440Z,24
2023-03-08T13:31:05.089Z,26
2023-03-08T13:46:05.758Z,17
2023-03-08T14:01:05.682Z,20
2023-03-08T14:16:05.374Z,13
2023-03-08T14:31:05.409Z,20
2023-03-08T14:46:05.388Z,52
2023-03-08T15:01:05.484Z,16
2023-03-08T15:16:04.939Z,17
2023-03-08T15:31:05.040Z,23
2023-03-08T15:46:05.353Z,27
2023-03-08T16:01:05.668Z,13
2023-03-08T16:16:05.442Z,14
2023-03-08T16:31:05.652Z,23
2023-03-08T16:46:05.768Z,37
2023-03-08T17:01:04.977Z,33
2023-03-08T17:16:05.475Z,31
2023-03-08T17:31:05.995Z,29
2023-03-08T17:46:05.775Z,30
2023-03-08T18:01:05.615Z,35
2023-03-08T18:16:05.532Z,22
2023-03-08T18:31:05.036Z,22
2023-03-08T18:46:05.645Z,25
2023-03-08T19:01:05.360Z,29
2023-03-08T19:16:05.812Z,31
2023-03-08T19:31:05.438Z,38
2023-03-08T19:46:05.192Z,37
2023-03-08T20:01:05.886Z,36
2023-03-08T20:16:05.564Z,36
2023-03-08T20:31:05.625Z,39
2023-03-08T20:46:05.009Z,46
2023-03-08T21:01:05.509Z,51
2023-03-08T21:16:05.848Z,67
2023-03-08T21:31:05.495Z,82
2023-03-08T21:46:05.553Z,91
2023-03-08T22:01:05.566Z,75
2023-03-08T22:16:05.744Z,66
2023-03-08T22:31:09.204Z,57
2023-03-08T22:46:05.660Z,62
2023-03-08T23:01:05.777Z,82
2023-03-08T23:16:05.294Z,72
2023-03-08T23:31:05.487Z,61
2023-03-08T23:46:04.823Z,42
